Time;durP1;ratioP1;P1;durP2;ratioP2;P2;SDS_P1;SDS_P2;PMS_P1;PMS_P2;Temp;Humidity;BMP_temperature;BMP_pressure;BME280_temperature;BME280_humidity;BME280_pressure;Samples;Min_cycle;Max_cycle;Signal;HPM_P1;HPM_P2
2023/05/13 00:02:22;;;;;;;9.60;6.22;;;;;;;;;;5046955;28;20028;-73
2023/05/13 00:04:48;;;;;;;11.57;6.00;;;;;;;;;;5048635;28;20477;-72
2023/05/13 00:07:13;;;;;;;7.63;6.07;;;;;;;;;;5050612;28;20032;-72
2023/05/13 00:09:39;;;;;;;11.70;6.30;;;;;;;;;;5049999;28;20040;-72
2023/05/13 00:12:04;;;;;;;7.95;5.60;;;;;;;;;;5045900;28;20083;-72
2023/05/13 00:14:30;;;;;;;8.25;5.82;;;;;;;;;;5044372;28;20858;-73
2023/05/13 00:16:57;;;;;;;8.55;6.15;;;;;;;;;;5042081;28;21892;-72
2023/05/13 00:19:23;;;;;;;17.65;6.60;;;;;;;;;;5045020;28;20041;-72
2023/05/13 00:21:48;;;;;;;8.68;6.25;;;;;;;;;;5047506;28;20028;-72
2023/05/13 00:24:13;;;;;;;8.50;6.30;;;;;;;;;;5041360;28;20021;-74
2023/05/13 00:26:39;;;;;;;10.90;5.90;;;;;;;;;;5029972;28;20056;-73
2023/05/13 00:29:04;;;;;;;10.98;6.13;;;;;;;;;;5025679;28;20025;-72
2023/05/13 00:31:29;;;;;;;6.85;6.15;;;;;;;;;;5025110;28;20098;-75
2023/05/13 00:33:55;;;;;;;6.97;6.07;;;;;;;;;;5046963;28;20024;-72
2023/05/13 00:36:20;;;;;;;7.80;5.72;;;;;;;;;;5046824;28;20622;-72
2023/05/13 00:38:46;;;;;;;6.93;5.65;;;;;;;;;;5044935;28;20125;-72
2023/05/13 00:41:11;;;;;;;11.00;6.20;;;;;;;;;;5045867;28;20374;-74
2023/05/13 00:43:36;;;;;;;7.82;6.05;;;;;;;;;;5039818;28;20036;-72
2023/05/13 00:46:02;;;;;;;7.03;5.47;;;;;;;;;;5046797;28;20115;-73
2023/05/13 00:48:28;;;;;;;9.23;6.07;;;;;;;;;;5044642;28;20029;-72
2023/05/13 00:50:54;;;;;;;8.45;5.95;;;;;;;;;;5044236;28;20036;-73
2023/05/13 00:53:19;;;;;;;7.05;5.57;;;;;;;;;;5039143;28;20108;-72
2023/05/13 00:55:45;;;;;;;10.32;5.93;;;;;;;;;;5035543;28;20078;-73
2023/05/13 00:58:10;;;;;;;9.20;6.05;;;;;;;;;;5031614;28;20486;-73
2023/05/13 01:00:46;;;;;;;8.13;5.95;;;;;;;;;;5050142;28;20029;-72
2023/05/13 01:03:37;;;;;;;12.77;6.25;;;;;;;;;;5049229;28;20021;-73
2023/05/13 01:06:25;;;;;;;6.97;5.65;;;;;;;;;;5048408;28;20401;-73
2023/05/13 01:09:00;;;;;;;6.72;5.70;;;;;;;;;;5048875;28;21567;-72
2023/05/13 01:11:34;;;;;;;8.00;5.90;;;;;;;;;;5049274;28;20033;-72
2023/05/13 01:14:15;;;;;;;8.35;5.90;;;;;;;;;;5037750;28;20028;-73
2023/05/13 01:17:04;;;;;;;7.03;5.68;;;;;;;;;;5047404;28;20111;-74
2023/05/13 01:19:51;;;;;;;8.00;5.82;;;;;;;;;;5033600;28;20032;-72
2023/05/13 01:22:16;;;;;;;6.68;5.82;;;;;;;;;;5045873;28;20020;-72
2023/05/13 01:24:42;;;;;;;8.18;5.82;;;;;;;;;;5049114;28;22019;-73
2023/05/13 01:27:07;;;;;;;10.38;6.18;;;;;;;;;;5051827;28;20618;-72
2023/05/13 01:29:34;;;;;;;6.07;5.47;;;;;;;;;;5047622;28;20033;-74
2023/05/13 01:32:01;;;;;;;6.65;5.95;;;;;;;;;;5029006;28;20013;-73
2023/05/13 01:34:27;;;;;;;7.70;5.53;;;;;;;;;;5048097;28;20037;-73
2023/05/13 01:36:53;;;;;;;9.93;6.22;;;;;;;;;;5029022;28;20547;-74
2023/05/13 01:39:19;;;;;;;8.68;5.93;;;;;;;;;;5045633;28;20029;-72
2023/05/13 01:41:44;;;;;;;6.63;5.93;;;;;;;;;;5030999;28;20316;-72
2023/05/13 01:44:10;;;;;;;7.47;5.80;;;;;;;;;;5032865;28;20032;-72
2023/05/13 01:46:38;;;;;;;6.57;5.88;;;;;;;;;;5044523;28;20036;-72
2023/05/13 01:49:04;;;;;;;8.00;6.18;;;;;;;;;;5029695;28;20033;-73
2023/05/13 01:51:30;;;;;;;8.55;6.18;;;;;;;;;;5039978;28;20033;-74
2023/05/13 01:53:56;;;;;;;11.07;6.05;;;;;;;;;;5045712;28;20036;-72
2023/05/13 01:56:22;;;;;;;9.00;6.47;;;;;;;;;;5042534;28;20021;-72
2023/05/13 01:58:47;;;;;;;11.75;6.18;;;;;;;;;;5045651;28;20067;-74
2023/05/13 02:01:13;;;;;;;8.52;6.32;;;;;;;;;;5047593;28;20528;-73
2023/05/13 02:03:38;;;;;;;10.25;5.82;;;;;;;;;;5040922;28;20040;-73
2023/05/13 02:06:04;;;;;;;7.75;5.88;;;;;;;;;;5047666;28;20052;-72
2023/05/13 02:08:29;;;;;;;7.75;6.35;;;;;;;;;;5042373;28;20028;-73
2023/05/13 02:10:56;;;;;;;9.88;6.55;;;;;;;;;;5047792;28;20032;-72
2023/05/13 02:13:22;;;;;;;7.30;5.88;;;;;;;;;;5044701;28;20104;-74
2023/05/13 02:15:47;;;;;;;7.10;5.78;;;;;;;;;;5050605;28;20121;-72
2023/05/13 02:18:12;;;;;;;10.45;6.10;;;;;;;;;;5049834;28;20477;-74
2023/05/13 02:20:38;;;;;;;8.05;6.20;;;;;;;;;;5054316;28;20549;-74
2023/05/13 02:23:03;;;;;;;10.18;6.20;;;;;;;;;;5043845;28;20516;-72
2023/05/13 02:25:28;;;;;;;9.43;5.97;;;;;;;;;;5050280;28;20025;-72
2023/05/13 02:27:54;;;;;;;10.32;6.10;;;;;;;;;;5050948;28;20021;-72
2023/05/13 02:30:20;;;;;;;7.10;6.38;;;;;;;;;;5035058;28;20044;-72
2023/05/13 02:32:45;;;;;;;10.48;6.38;;;;;;;;;;5030921;28;20033;-72
2023/05/13 02:35:11;;;;;;;7.38;6.40;;;;;;;;;;5051532;28;20032;-72
2023/05/13 02:37:36;;;;;;;11.40;6.35;;;;;;;;;;5041457;28;20032;-73
2023/05/13 02:40:02;;;;;;;8.00;6.03;;;;;;;;;;5050275;28;20642;-72
2023/05/13 02:42:27;;;;;;;10.10;6.25;;;;;;;;;;5048854;28;20032;-73
2023/05/13 02:44:52;;;;;;;8.45;6.57;;;;;;;;;;5050932;28;20175;-73
2023/05/13 02:47:18;;;;;;;9.68;6.30;;;;;;;;;;5049858;28;20029;-72
2023/05/13 02:49:43;;;;;;;7.30;6.22;;;;;;;;;;5036270;28;20044;-72
2023/05/13 02:52:08;;;;;;;8.25;6.13;;;;;;;;;;5050233;28;20017;-72
2023/05/13 02:54:34;;;;;;;7.95;6.70;;;;;;;;;;5043766;28;20043;-72
2023/05/13 02:56:59;;;;;;;9.05;6.55;;;;;;;;;;5046391;28;20036;-72
2023/05/13 02:59:25;;;;;;;8.70;6.57;;;;;;;;;;5047088;28;20047;-74
2023/05/13 03:01:50;;;;;;;11.82;6.30;;;;;;;;;;5048165;28;20396;-72
2023/05/13 03:04:15;;;;;;;8.23;6.72;;;;;;;;;;5041926;28;20029;-72
2023/05/13 03:06:41;;;;;;;10.65;6.60;;;;;;;;;;5043683;28;20021;-74
2023/05/13 03:09:06;;;;;;;8.85;6.63;;;;;;;;;;5045135;28;20027;-72
2023/05/13 03:11:31;;;;;;;7.65;6.38;;;;;;;;;;5030516;28;20063;-72
2023/05/13 03:13:56;;;;;;;9.07;6.25;;;;;;;;;;5047987;28;20037;-72
2023/05/13 03:16:22;;;;;;;7.68;6.78;;;;;;;;;;5027665;28;20075;-72
2023/05/13 03:18:47;;;;;;;8.13;6.70;;;;;;;;;;5046890;28;20128;-72
2023/05/13 03:21:12;;;;;;;8.63;6.03;;;;;;;;;;5051367;28;20087;-72
2023/05/13 03:23:38;;;;;;;8.35;6.97;;;;;;;;;;5043596;28;20079;-72
2023/05/13 03:26:03;;;;;;;9.00;7.15;;;;;;;;;;5029878;28;20021;-72
2023/05/13 03:28:28;;;;;;;9.60;6.95;;;;;;;;;;5043927;28;20029;-74
2023/05/13 03:30:54;;;;;;;10.70;6.68;;;;;;;;;;5034222;28;20021;-72
2023/05/13 03:33:19;;;;;;;8.15;6.70;;;;;;;;;;5049297;28;20021;-73
2023/05/13 03:35:47;;;;;;;9.43;6.70;;;;;;;;;;5045369;28;20052;-72
2023/05/13 03:38:12;;;;;;;7.65;6.15;;;;;;;;;;5047115;28;20040;-74
2023/05/13 03:40:38;;;;;;;8.95;6.65;;;;;;;;;;5037840;28;20472;-72
2023/05/13 03:43:03;;;;;;;9.05;6.60;;;;;;;;;;5031255;28;20017;-72
2023/05/13 03:45:29;;;;;;;8.30;6.95;;;;;;;;;;5042073;28;20021;-72
2023/05/13 03:47:55;;;;;;;9.00;6.45;;;;;;;;;;5051827;28;20020;-72
2023/05/13 03:50:20;;;;;;;11.00;6.32;;;;;;;;;;5050639;28;20028;-72
2023/05/13 03:52:45;;;;;;;10.02;7.30;;;;;;;;;;5045379;28;20445;-74
2023/05/13 03:55:13;;;;;;;8.80;6.85;;;;;;;;;;5048095;28;20079;-72
2023/05/13 03:57:39;;;;;;;9.50;7.07;;;;;;;;;;5050919;28;21310;-73
2023/05/13 04:00:05;;;;;;;8.38;6.90;;;;;;;;;;5029533;28;20035;-72
2023/05/13 04:02:30;;;;;;;7.75;6.32;;;;;;;;;;5033375;28;20025;-72
2023/05/13 04:04:55;;;;;;;10.10;6.50;;;;;;;;;;5031518;28;20029;-72
2023/05/13 04:07:21;;;;;;;8.38;6.25;;;;;;;;;;5028998;28;20032;-73
2023/05/13 04:09:46;;;;;;;9.32;6.80;;;;;;;;;;5026777;28;20055;-75
2023/05/13 04:12:11;;;;;;;11.32;6.43;;;;;;;;;;5047329;28;20025;-72
2023/05/13 04:14:37;;;;;;;7.93;6.40;;;;;;;;;;5041404;28;20029;-72
2023/05/13 04:17:02;;;;;;;8.40;6.65;;;;;;;;;;5033537;28;20073;-72
2023/05/13 04:19:27;;;;;;;11.65;6.90;;;;;;;;;;5026170;28;20500;-72
2023/05/13 04:21:53;;;;;;;10.10;6.93;;;;;;;;;;5033128;28;20024;-72
2023/05/13 04:24:18;;;;;;;7.78;6.55;;;;;;;;;;5046783;28;20036;-74
2023/05/13 04:26:43;;;;;;;8.32;6.80;;;;;;;;;;5030594;28;20029;-72
2023/05/13 04:29:09;;;;;;;9.70;6.80;;;;;;;;;;5052843;28;20072;-72
2023/05/13 04:31:35;;;;;;;9.25;6.57;;;;;;;;;;5050395;28;20501;-74
2023/05/13 04:34:00;;;;;;;10.27;6.65;;;;;;;;;;5029907;28;20036;-73
2023/05/13 04:36:25;;;;;;;10.05;6.65;;;;;;;;;;5052591;28;20087;-74
2023/05/13 04:38:51;;;;;;;9.20;6.85;;;;;;;;;;5035076;28;20127;-73
2023/05/13 04:41:16;;;;;;;8.85;6.55;;;;;;;;;;5050519;28;20487;-72
2023/05/13 04:43:41;;;;;;;7.93;6.35;;;;;;;;;;5050195;28;20021;-74
2023/05/13 04:46:07;;;;;;;8.60;6.90;;;;;;;;;;5032509;28;20055;-72
2023/05/13 04:48:32;;;;;;;8.18;6.65;;;;;;;;;;5034349;28;20052;-73
2023/05/13 04:50:57;;;;;;;8.23;6.60;;;;;;;;;;5031913;28;20025;-72
2023/05/13 04:53:23;;;;;;;9.48;6.88;;;;;;;;;;5009997;28;20063;-73
2023/05/13 04:55:49;;;;;;;10.65;6.82;;;;;;;;;;5031270;28;20087;-72
2023/05/13 04:58:14;;;;;;;9.80;7.53;;;;;;;;;;5016461;28;20026;-72
2023/05/13 05:00:40;;;;;;;8.02;6.47;;;;;;;;;;5012917;28;20030;-73
2023/05/13 05:03:05;;;;;;;12.15;7.72;;;;;;;;;;5017823;28;20104;-72
2023/05/13 05:05:30;;;;;;;9.98;7.82;;;;;;;;;;5026013;28;20033;-74
2023/05/13 05:07:56;;;;;;;9.40;7.10;;;;;;;;;;5025301;28;20139;-72
2023/05/13 05:10:21;;;;;;;11.80;7.63;;;;;;;;;;5003940;28;20480;-72
2023/05/13 05:12:47;;;;;;;8.88;7.15;;;;;;;;;;5023433;28;20474;-72
2023/05/13 05:15:14;;;;;;;14.52;8.40;;;;;;;;;;5008995;28;20117;-73
2023/05/13 05:17:43;;;;;;;10.40;8.10;;;;;;;;;;5008546;28;20036;-73
2023/05/13 05:20:09;;;;;;;9.68;7.78;;;;;;;;;;5020681;28;20038;-73
2023/05/13 05:22:36;;;;;;;8.88;7.97;;;;;;;;;;5017498;28;20034;-72
2023/05/13 05:25:02;;;;;;;10.50;7.65;;;;;;;;;;5023781;28;20089;-72
2023/05/13 05:27:27;;;;;;;8.75;7.20;;;;;;;;;;5024771;28;20121;-74
2023/05/13 05:29:53;;;;;;;10.27;8.18;;;;;;;;;;5021979;28;20022;-72
2023/05/13 05:32:18;;;;;;;12.20;8.43;;;;;;;;;;5009008;28;20190;-74
2023/05/13 05:34:44;;;;;;;9.65;8.38;;;;;;;;;;5015295;28;20084;-72
2023/05/13 05:37:09;;;;;;;12.00;8.23;;;;;;;;;;5024249;28;20107;-75
2023/05/13 05:39:35;;;;;;;13.30;8.90;;;;;;;;;;5018293;28;20038;-72
2023/05/13 05:42:00;;;;;;;13.27;8.98;;;;;;;;;;5024892;28;20033;-72
2023/05/13 05:44:25;;;;;;;13.95;8.57;;;;;;;;;;5006311;28;20040;-72
2023/05/13 05:46:51;;;;;;;11.38;8.15;;;;;;;;;;5030745;28;20033;-72
2023/05/13 05:49:17;;;;;;;12.73;8.20;;;;;;;;;;5037992;28;20131;-72
2023/05/13 05:51:42;;;;;;;13.13;9.05;;;;;;;;;;5034147;28;20041;-72
2023/05/13 05:54:07;;;;;;;10.20;8.50;;;;;;;;;;5029405;28;20110;-73
2023/05/13 05:56:33;;;;;;;10.43;8.80;;;;;;;;;;5033013;28;20400;-73
2023/05/13 05:58:58;;;;;;;10.88;8.18;;;;;;;;;;5051658;28;20205;-72
2023/05/13 06:01:24;;;;;;;11.35;8.27;;;;;;;;;;5052649;28;20045;-73
2023/05/13 06:03:49;;;;;;;10.85;8.18;;;;;;;;;;5032556;28;20051;-72
2023/05/13 06:06:14;;;;;;;11.23;8.27;;;;;;;;;;5038303;28;20025;-73
2023/05/13 06:08:40;;;;;;;10.57;8.27;;;;;;;;;;5032617;28;20466;-72
2023/05/13 06:11:05;;;;;;;13.05;9.18;;;;;;;;;;5047886;28;20507;-74
2023/05/13 06:13:30;;;;;;;10.88;8.63;;;;;;;;;;5015828;28;20036;-74
2023/05/13 06:15:56;;;;;;;11.90;8.77;;;;;;;;;;5040215;28;20112;-72
2023/05/13 06:18:21;;;;;;;10.57;9.02;;;;;;;;;;5048889;28;20028;-75
2023/05/13 06:20:47;;;;;;;9.52;7.97;;;;;;;;;;5027298;28;20032;-75
2023/05/13 06:23:13;;;;;;;9.52;8.20;;;;;;;;;;5025108;28;20017;-75
2023/05/13 06:25:39;;;;;;;9.50;7.75;;;;;;;;;;5045280;28;20025;-74
2023/05/13 06:28:05;;;;;;;10.85;8.32;;;;;;;;;;5039304;28;20029;-74
2023/05/13 06:30:30;;;;;;;10.57;9.18;;;;;;;;;;5039733;28;20025;-74
2023/05/13 06:32:56;;;;;;;10.38;9.07;;;;;;;;;;5042893;28;20028;-75
2023/05/13 06:35:21;;;;;;;11.23;8.90;;;;;;;;;;5043591;28;20087;-74
2023/05/13 06:37:47;;;;;;;10.63;8.75;;;;;;;;;;5026656;28;20033;-75
2023/05/13 06:40:12;;;;;;;10.43;8.75;;;;;;;;;;5048715;28;20033;-75
2023/05/13 06:42:39;;;;;;;10.70;9.02;;;;;;;;;;5043739;28;20021;-75
2023/05/13 06:45:07;;;;;;;11.32;9.55;;;;;;;;;;5030199;28;20565;-75
2023/05/13 06:47:32;;;;;;;13.52;9.80;;;;;;;;;;5037501;28;20095;-74
2023/05/13 06:49:57;;;;;;;11.30;9.77;;;;;;;;;;5009100;28;20034;-74
2023/05/13 06:52:23;;;;;;;10.43;9.15;;;;;;;;;;5019263;28;20065;-74
2023/05/13 06:54:48;;;;;;;15.45;9.80;;;;;;;;;;5022374;28;20068;-74
2023/05/13 06:57:13;;;;;;;16.40;9.68;;;;;;;;;;5011356;28;20417;-74
2023/05/13 06:59:39;;;;;;;12.73;10.23;;;;;;;;;;5031268;28;20535;-74
2023/05/13 07:02:08;;;;;;;13.20;9.75;;;;;;;;;;5026450;28;20492;-74
2023/05/13 07:04:33;;;;;;;11.32;9.40;;;;;;;;;;5007692;28;20033;-75
2023/05/13 07:06:59;;;;;;;13.00;9.80;;;;;;;;;;5026803;28;20026;-75
2023/05/13 07:09:24;;;;;;;11.55;9.02;;;;;;;;;;5017606;28;20017;-74
2023/05/13 07:11:50;;;;;;;11.95;10.00;;;;;;;;;;5027714;28;20049;-74
2023/05/13 07:14:15;;;;;;;11.10;9.88;;;;;;;;;;5015755;28;20053;-75
2023/05/13 07:16:41;;;;;;;12.02;9.63;;;;;;;;;;5024664;28;20021;-75
2023/05/13 07:19:06;;;;;;;14.02;10.18;;;;;;;;;;5006460;28;20029;-74
2023/05/13 07:21:32;;;;;;;12.63;10.18;;;;;;;;;;5003353;28;20163;-74
2023/05/13 07:23:57;;;;;;;13.70;10.15;;;;;;;;;;5023469;28;20385;-75
2023/05/13 07:26:22;;;;;;;15.98;10.93;;;;;;;;;;5027348;28;20116;-75
2023/05/13 07:28:48;;;;;;;13.05;9.90;;;;;;;;;;5006924;28;20045;-75
2023/05/13 07:31:13;;;;;;;11.50;9.80;;;;;;;;;;5006309;28;20091;-75
2023/05/13 07:33:38;;;;;;;13.50;9.88;;;;;;;;;;4998768;28;20022;-74
2023/05/13 07:36:05;;;;;;;11.77;10.25;;;;;;;;;;5014674;28;20041;-74
2023/05/13 07:38:30;;;;;;;12.75;10.32;;;;;;;;;;5005925;28;20025;-75
2023/05/13 07:40:55;;;;;;;12.10;10.00;;;;;;;;;;5022253;28;20071;-74
2023/05/13 07:43:24;;;;;;;12.90;9.57;;;;;;;;;;4989675;28;20060;-75
2023/05/13 07:45:50;;;;;;;12.25;10.43;;;;;;;;;;5019322;28;20181;-74
2023/05/13 07:48:16;;;;;;;14.05;10.77;;;;;;;;;;5033581;28;20029;-75
2023/05/13 07:50:45;;;;;;;14.32;11.00;;;;;;;;;;5021185;28;20115;-75
2023/05/13 07:53:11;;;;;;;14.55;10.90;;;;;;;;;;5034924;28;20044;-75
2023/05/13 07:55:36;;;;;;;12.82;10.80;;;;;;;;;;5047545;28;20453;-75
2023/05/13 07:58:02;;;;;;;14.57;10.90;;;;;;;;;;5025686;28;20024;-74
2023/05/13 08:00:27;;;;;;;14.32;10.48;;;;;;;;;;5030679;28;20025;-75
2023/05/13 08:02:53;;;;;;;16.70;11.48;;;;;;;;;;5049065;28;20381;-75
2023/05/13 08:05:18;;;;;;;13.95;10.48;;;;;;;;;;5047774;28;20057;-75
2023/05/13 08:07:43;;;;;;;13.15;10.45;;;;;;;;;;5054808;28;20036;-75
2023/05/13 08:10:09;;;;;;;12.35;11.05;;;;;;;;;;5038166;28;20385;-75
2023/05/13 08:12:34;;;;;;;13.27;11.60;;;;;;;;;;5040266;28;20025;-75
2023/05/13 08:15:02;;;;;;;13.23;11.57;;;;;;;;;;5034616;28;20041;-74
2023/05/13 08:17:28;;;;;;;14.90;11.52;;;;;;;;;;5035967;28;20119;-75
2023/05/13 08:19:53;;;;;;;13.27;11.27;;;;;;;;;;5048515;28;20517;-75
2023/05/13 08:22:18;;;;;;;13.98;11.38;;;;;;;;;;5048080;28;20025;-75
2023/05/13 08:24:44;;;;;;;15.25;10.85;;;;;;;;;;5048708;28;20025;-75
2023/05/13 08:27:09;;;;;;;14.10;11.23;;;;;;;;;;5038706;28;20024;-74
2023/05/13 08:29:34;;;;;;;13.07;10.98;;;;;;;;;;5049029;28;20370;-75
2023/05/13 08:32:00;;;;;;;14.30;11.55;;;;;;;;;;5048160;28;20095;-75
2023/05/13 08:34:25;;;;;;;11.63;10.27;;;;;;;;;;5025793;28;20083;-75
2023/05/13 08:36:50;;;;;;;12.75;11.00;;;;;;;;;;5049776;28;20016;-74
2023/05/13 08:39:16;;;;;;;14.23;11.38;;;;;;;;;;5048723;28;20666;-74
2023/05/13 08:41:43;;;;;;;12.63;10.63;;;;;;;;;;5031723;28;20389;-74
2023/05/13 08:44:12;;;;;;;13.95;10.75;;;;;;;;;;5048693;28;20045;-75
2023/05/13 08:46:38;;;;;;;13.27;11.10;;;;;;;;;;5020040;28;20550;-75
2023/05/13 08:49:05;;;;;;;14.60;10.43;;;;;;;;;;5023003;28;20053;-77
2023/05/13 08:51:30;;;;;;;13.23;10.65;;;;;;;;;;5032965;28;20025;-77
2023/05/13 08:53:56;;;;;;;11.88;10.25;;;;;;;;;;5027514;28;20487;-77
2023/05/13 08:56:24;;;;;;;10.95;9.43;;;;;;;;;;5013111;28;20120;-77
2023/05/13 08:58:49;;;;;;;12.40;10.38;;;;;;;;;;5024640;28;20029;-77
2023/05/13 09:01:16;;;;;;;12.93;8.88;;;;;;;;;;5029069;28;20029;-76
2023/05/13 09:03:53;;;;;;;16.02;10.38;;;;;;;;;;5015761;28;20362;-76
2023/05/13 09:06:19;;;;;;;11.63;9.10;;;;;;;;;;5032611;28;20034;-77
2023/05/13 09:08:45;;;;;;;12.27;9.63;;;;;;;;;;5024667;28;20048;-77
2023/05/13 09:11:10;;;;;;;11.98;9.52;;;;;;;;;;5026312;28;20116;-77
2023/05/13 09:13:36;;;;;;;11.20;9.38;;;;;;;;;;5031556;28;20029;-77
2023/05/13 09:16:01;;;;;;;11.18;8.63;;;;;;;;;;5032774;28;20037;-77
2023/05/13 09:18:30;;;;;;;11.75;8.85;;;;;;;;;;5034030;28;20057;-77
2023/05/13 09:20:56;;;;;;;10.30;9.05;;;;;;;;;;5024831;28;20028;-77
2023/05/13 09:23:22;;;;;;;12.18;9.73;;;;;;;;;;5010606;28;20101;-76
2023/05/13 09:25:48;;;;;;;11.65;8.35;;;;;;;;;;5030629;28;20026;-77
2023/05/13 09:28:14;;;;;;;9.85;7.47;;;;;;;;;;5034500;28;20091;-77
2023/05/13 09:30:44;;;;;;;10.05;8.23;;;;;;;;;;5032027;28;20116;-77
2023/05/13 09:33:18;;;;;;;9.85;8.05;;;;;;;;;;5016249;28;20037;-77
2023/05/13 09:35:51;;;;;;;11.75;8.82;;;;;;;;;;5020010;28;20493;-77
2023/05/13 09:38:20;;;;;;;12.25;8.27;;;;;;;;;;5023031;28;20109;-77
2023/05/13 09:40:55;;;;;;;10.20;8.73;;;;;;;;;;5029343;28;20026;-77
2023/05/13 09:43:23;;;;;;;12.40;8.82;;;;;;;;;;5027578;28;20104;-77
2023/05/13 09:45:56;;;;;;;12.43;9.85;;;;;;;;;;5017309;28;20489;-77
2023/05/13 09:48:24;;;;;;;10.88;8.50;;;;;;;;;;5056767;28;20507;-77
2023/05/13 09:50:50;;;;;;;11.00;8.80;;;;;;;;;;5053900;28;20405;-77
2023/05/13 09:53:16;;;;;;;11.32;9.95;;;;;;;;;;5035822;28;20020;-78
2023/05/13 09:55:46;;;;;;;12.23;8.80;;;;;;;;;;5032239;28;20060;-77
2023/05/13 09:58:12;;;;;;;10.80;8.60;;;;;;;;;;5048741;28;20112;-77
2023/05/13 10:00:40;;;;;;;10.50;8.95;;;;;;;;;;5039964;28;20052;-77
2023/05/13 10:03:06;;;;;;;12.50;9.35;;;;;;;;;;5041392;28;20057;-77
2023/05/13 10:05:32;;;;;;;11.05;8.82;;;;;;;;;;5049767;28;20491;-77
2023/05/13 10:07:59;;;;;;;12.02;8.98;;;;;;;;;;5053385;28;20095;-77
2023/05/13 10:10:25;;;;;;;10.52;9.25;;;;;;;;;;5052986;28;20032;-77
2023/05/13 10:12:51;;;;;;;11.43;8.10;;;;;;;;;;5047342;28;20108;-77
2023/05/13 10:15:17;;;;;;;9.75;7.65;;;;;;;;;;5051805;28;20028;-77
2023/05/13 10:17:43;;;;;;;9.75;8.55;;;;;;;;;;5031020;28;20040;-77
2023/05/13 10:20:09;;;;;;;10.00;8.60;;;;;;;;;;5051200;28;20017;-77
2023/05/13 10:22:35;;;;;;;9.82;7.85;;;;;;;;;;5052638;28;20048;-77
2023/05/13 10:25:02;;;;;;;11.15;7.65;;;;;;;;;;5052444;28;20456;-77
2023/05/13 10:27:31;;;;;;;10.45;7.95;;;;;;;;;;5054984;28;20021;-77
2023/05/13 10:29:58;;;;;;;11.02;8.05;;;;;;;;;;5053929;28;20021;-77
2023/05/13 10:32:25;;;;;;;10.00;8.27;;;;;;;;;;5045953;28;20021;-77
2023/05/13 10:34:59;;;;;;;8.20;6.95;;;;;;;;;;5048043;28;20033;-77
2023/05/13 10:37:50;;;;;;;10.30;6.90;;;;;;;;;;5038734;28;20053;-77
2023/05/13 10:40:40;;;;;;;7.28;5.55;;;;;;;;;;5046531;28;20499;-77
2023/05/13 10:43:28;;;;;;;9.10;6.03;;;;;;;;;;5047813;28;20021;-77
2023/05/13 10:45:59;;;;;;;10.15;6.45;;;;;;;;;;5028133;28;20086;-77
2023/05/13 10:48:25;;;;;;;7.07;5.60;;;;;;;;;;5050295;28;20052;-77
2023/05/13 10:50:53;;;;;;;9.07;7.07;;;;;;;;;;5048607;28;20063;-77
2023/05/13 10:53:26;;;;;;;7.22;5.82;;;;;;;;;;5051520;28;20021;-77
2023/05/13 10:55:54;;;;;;;8.05;5.47;;;;;;;;;;5047645;28;20037;-77
2023/05/13 10:58:23;;;;;;;6.85;4.47;;;;;;;;;;5031724;28;20024;-77
2023/05/13 11:00:49;;;;;;;6.85;4.55;;;;;;;;;;5047606;28;20028;-76
2023/05/13 11:03:27;;;;;;;8.50;4.95;;;;;;;;;;5049041;28;20151;-77
2023/05/13 11:06:12;;;;;;;7.25;5.13;;;;;;;;;;5036699;28;20025;-77
2023/05/13 11:08:39;;;;;;;7.93;4.95;;;;;;;;;;5048014;28;20036;-77
2023/05/13 11:11:20;;;;;;;6.85;4.82;;;;;;;;;;5050333;28;20032;-77
2023/05/13 11:13:48;;;;;;;6.15;3.63;;;;;;;;;;5036696;28;20021;-77
2023/05/13 11:16:13;;;;;;;4.78;3.22;;;;;;;;;;5051203;28;20041;-77
2023/05/13 11:18:39;;;;;;;5.30;3.13;;;;;;;;;;5035586;28;20535;-76
2023/05/13 11:21:07;;;;;;;5.55;3.35;;;;;;;;;;5035751;28;20551;-77
2023/05/13 11:23:48;;;;;;;4.93;3.10;;;;;;;;;;5058588;28;20028;-77
2023/05/13 11:26:17;;;;;;;6.13;3.10;;;;;;;;;;5040471;28;20040;-77
2023/05/13 11:28:56;;;;;;;6.35;3.00;;;;;;;;;;5032030;28;20095;-77
2023/05/13 11:31:22;;;;;;;5.55;3.10;;;;;;;;;;5049205;28;20512;-77
2023/05/13 11:34:04;;;;;;;6.32;3.20;;;;;;;;;;5041905;28;20020;-77
2023/05/13 11:36:31;;;;;;;5.82;3.22;;;;;;;;;;5040772;28;20036;-77
2023/05/13 11:39:16;;;;;;;4.95;3.75;;;;;;;;;;5050042;28;20044;-77
2023/05/13 11:41:45;;;;;;;4.82;3.13;;;;;;;;;;5050358;28;20072;-77
2023/05/13 11:44:13;;;;;;;4.43;3.15;;;;;;;;;;5041583;28;20107;-77
2023/05/13 11:46:57;;;;;;;4.85;3.05;;;;;;;;;;5038296;28;20035;-77
2023/05/13 11:49:32;;;;;;;6.25;3.15;;;;;;;;;;5025907;28;20024;-77
2023/05/13 11:52:03;;;;;;;6.78;3.30;;;;;;;;;;5025397;28;20501;-77
2023/05/13 11:54:28;;;;;;;4.18;2.95;;;;;;;;;;5004549;28;20166;-78
2023/05/13 11:56:54;;;;;;;4.97;3.10;;;;;;;;;;5023363;28;20124;-77
2023/05/13 11:59:19;;;;;;;4.57;3.25;;;;;;;;;;5006153;28;20020;-77
2023/05/13 12:01:44;;;;;;;5.32;3.10;;;;;;;;;;5013710;28;20032;-77
2023/05/13 12:04:10;;;;;;;6.97;3.40;;;;;;;;;;5022308;28;20024;-77
2023/05/13 12:06:44;;;;;;;4.97;2.92;;;;;;;;;;5022419;28;20109;-77
2023/05/13 12:09:11;;;;;;;6.05;3.13;;;;;;;;;;5028507;28;20049;-76
2023/05/13 12:11:37;;;;;;;6.85;3.47;;;;;;;;;;5027359;28;20041;-77
2023/05/13 12:14:02;;;;;;;3.63;2.92;;;;;;;;;;5029440;28;20029;-77
2023/05/13 12:16:28;;;;;;;4.40;3.50;;;;;;;;;;5029859;28;20438;-77
2023/05/13 12:18:57;;;;;;;5.80;3.33;;;;;;;;;;5016971;28;20623;-77
2023/05/13 12:21:23;;;;;;;4.00;3.10;;;;;;;;;;5029054;28;20049;-77
2023/05/13 12:23:48;;;;;;;5.13;3.45;;;;;;;;;;5020161;28;20045;-76
2023/05/13 12:26:13;;;;;;;5.30;3.42;;;;;;;;;;5024610;28;20485;-77
2023/05/13 12:28:39;;;;;;;5.15;3.33;;;;;;;;;;5024917;28;20029;-77
2023/05/13 12:31:04;;;;;;;5.50;3.42;;;;;;;;;;5015041;28;20045;-77
2023/05/13 12:33:31;;;;;;;5.15;3.63;;;;;;;;;;5009438;28;20555;-75
2023/05/13 12:36:17;;;;;;;7.78;3.40;;;;;;;;;;5019278;28;20484;-77
2023/05/13 12:39:02;;;;;;;4.93;3.17;;;;;;;;;;5024059;28;20114;-77
2023/05/13 12:41:29;;;;;;;4.43;3.30;;;;;;;;;;5018923;28;20477;-76
2023/05/13 12:44:03;;;;;;;5.72;3.00;;;;;;;;;;5024739;28;20492;-77
2023/05/13 12:46:28;;;;;;;4.75;3.00;;;;;;;;;;5016795;28;20021;-76
2023/05/13 12:48:58;;;;;;;5.25;3.35;;;;;;;;;;5043412;28;20037;-77
2023/05/13 12:51:25;;;;;;;4.68;3.30;;;;;;;;;;5030045;28;20103;-77
2023/05/13 12:53:52;;;;;;;5.15;3.45;;;;;;;;;;5037135;28;20021;-76
2023/05/13 12:56:22;;;;;;;6.45;3.40;;;;;;;;;;5038495;28;20032;-77
2023/05/13 12:58:48;;;;;;;7.30;3.50;;;;;;;;;;5046207;28;20112;-76
2023/05/13 13:01:14;;;;;;;5.07;3.60;;;;;;;;;;5046868;28;20053;-76
2023/05/13 13:03:39;;;;;;;4.97;3.10;;;;;;;;;;5036624;28;20512;-76
2023/05/13 13:06:05;;;;;;;5.35;3.60;;;;;;;;;;5040389;28;20485;-77
2023/05/13 13:08:30;;;;;;;4.78;3.40;;;;;;;;;;5048616;28;20033;-76
2023/05/13 13:10:55;;;;;;;4.97;3.40;;;;;;;;;;5046344;28;20040;-76
2023/05/13 13:13:21;;;;;;;4.30;3.30;;;;;;;;;;5051205;28;20025;-76
2023/05/13 13:15:46;;;;;;;4.32;3.40;;;;;;;;;;5054146;28;20033;-76
2023/05/13 13:18:11;;;;;;;5.78;3.40;;;;;;;;;;5034070;28;20027;-76
2023/05/13 13:20:37;;;;;;;7.00;3.50;;;;;;;;;;5054152;28;20047;-76
2023/05/13 13:23:02;;;;;;;6.03;3.72;;;;;;;;;;5037928;28;20028;-76
2023/05/13 13:25:28;;;;;;;7.03;3.58;;;;;;;;;;5052935;28;20033;-76
2023/05/13 13:27:53;;;;;;;6.22;3.53;;;;;;;;;;5043300;28;20025;-76
2023/05/13 13:30:19;;;;;;;4.63;3.47;;;;;;;;;;5031692;28;20028;-76
2023/05/13 13:32:44;;;;;;;4.07;2.97;;;;;;;;;;5035400;28;20052;-77
2023/05/13 13:35:09;;;;;;;5.22;3.10;;;;;;;;;;5045737;28;20072;-77
2023/05/13 13:37:35;;;;;;;5.47;3.40;;;;;;;;;;5051600;28;20483;-76
2023/05/13 13:40:01;;;;;;;4.78;3.75;;;;;;;;;;5058464;28;20032;-76
2023/05/13 13:42:26;;;;;;;4.43;3.22;;;;;;;;;;5051883;28;20448;-77
2023/05/13 13:44:52;;;;;;;4.53;3.17;;;;;;;;;;5046339;28;20103;-77
2023/05/13 13:47:17;;;;;;;4.15;3.30;;;;;;;;;;5033292;28;20473;-77
2023/05/13 13:49:42;;;;;;;5.30;3.65;;;;;;;;;;5054232;28;20048;-76
2023/05/13 13:52:08;;;;;;;4.53;3.30;;;;;;;;;;5054373;28;20029;-76
2023/05/13 13:54:33;;;;;;;5.07;3.40;;;;;;;;;;5049685;28;20206;-76
2023/05/13 13:56:59;;;;;;;4.70;3.20;;;;;;;;;;5050939;28;20068;-77
2023/05/13 13:59:24;;;;;;;4.15;3.20;;;;;;;;;;5042589;28;20033;-76
2023/05/13 14:01:49;;;;;;;4.50;3.08;;;;;;;;;;5036184;28;20021;-76
2023/05/13 14:04:22;;;;;;;3.50;2.67;;;;;;;;;;5052153;28;20100;-76
2023/05/13 14:06:47;;;;;;;9.53;3.60;;;;;;;;;;5036107;28;20033;-76
2023/05/13 14:09:12;;;;;;;5.22;3.40;;;;;;;;;;5036088;28;20421;-76
2023/05/13 14:11:38;;;;;;;5.90;3.70;;;;;;;;;;5051129;28;20032;-76
2023/05/13 14:14:03;;;;;;;4.72;3.20;;;;;;;;;;5050521;28;20032;-76
2023/05/13 14:16:29;;;;;;;5.30;3.50;;;;;;;;;;5054730;28;20087;-76
2023/05/13 14:18:54;;;;;;;5.63;3.22;;;;;;;;;;5048753;28;20029;-76
2023/05/13 14:21:20;;;;;;;5.78;3.35;;;;;;;;;;5046652;28;20036;-76
2023/05/13 14:23:45;;;;;;;5.90;3.10;;;;;;;;;;5034173;28;20023;-76
2023/05/13 14:26:13;;;;;;;7.47;3.38;;;;;;;;;;5050399;28;20029;-76
2023/05/13 14:28:39;;;;;;;6.93;3.40;;;;;;;;;;5048350;28;20458;-76
2023/05/13 14:31:04;;;;;;;5.70;3.00;;;;;;;;;;5045120;28;20033;-76
2023/05/13 14:33:30;;;;;;;3.83;2.70;;;;;;;;;;5029670;28;20025;-76
2023/05/13 14:35:55;;;;;;;4.30;2.92;;;;;;;;;;5035982;28;20469;-76